Time;durP1;ratioP1;P1;durP2;ratioP2;P2;SDS_P1;SDS_P2;PMS_P1;PMS_P2;Temp;Humidity;BMP_temperature;BMP_pressure;BME280_temperature;BME280_humidity;BME280_pressure;Samples;Min_cycle;Max_cycle;Signal;HPM_P1;HPM_P2
2022/04/01 00:01:28;;;;;;;12.15;6.13;;;;;;;;;;4968675;28;20030;-68
2022/04/01 00:03:54;;;;;;;10.68;5.32;;;;;;;;;;4970422;28;20027;-70
2022/04/01 00:06:20;;;;;;;7.55;3.65;;;;;;;;;;4969746;28;20066;-68
2022/04/01 00:08:46;;;;;;;10.20;4.22;;;;;;;;;;4952614;29;20365;-70
2022/04/01 00:11:13;;;;;;;5.25;2.95;;;;;;;;;;4952650;29;20500;-69
2022/04/01 00:13:39;;;;;;;8.02;3.35;;;;;;;;;;5019810;28;20131;-69
2022/04/01 00:16:05;;;;;;;5.90;3.25;;;;;;;;;;4953312;28;20051;-68
2022/04/01 00:18:31;;;;;;;5.28;3.17;;;;;;;;;;4958280;28;20105;-69
2022/04/01 00:20:57;;;;;;;6.60;3.28;;;;;;;;;;4952216;28;20496;-68
2022/04/01 00:23:23;;;;;;;7.72;3.08;;;;;;;;;;4956548;28;20118;-69
2022/04/01 00:25:50;;;;;;;8.30;3.30;;;;;;;;;;4955384;28;20397;-68
2022/04/01 00:28:19;;;;;;;6.88;3.50;;;;;;;;;;4954683;28;20144;-69
2022/04/01 00:30:46;;;;;;;8.02;3.42;;;;;;;;;;4953392;28;20039;-70
2022/04/01 00:33:14;;;;;;;10.73;3.40;;;;;;;;;;4962624;28;20050;-68
2022/04/01 00:35:40;;;;;;;7.65;3.53;;;;;;;;;;4965101;28;20065;-68
2022/04/01 00:38:08;;;;;;;8.07;3.15;;;;;;;;;;5037273;28;20476;-68
2022/04/01 00:40:36;;;;;;;7.82;3.42;;;;;;;;;;4952260;28;20388;-69
2022/04/01 00:43:02;;;;;;;7.28;3.45;;;;;;;;;;4957390;28;20027;-69
2022/04/01 00:45:28;;;;;;;7.82;3.45;;;;;;;;;;4971887;28;20043;-69
2022/04/01 00:48:01;;;;;;;10.50;3.47;;;;;;;;;;4974598;28;20031;-69
2022/04/01 00:50:28;;;;;;;10.75;3.78;;;;;;;;;;5023650;28;20468;-70
2022/04/01 00:52:54;;;;;;;14.95;4.65;;;;;;;;;;4952196;29;20080;-69
2022/04/01 00:55:20;;;;;;;12.85;4.28;;;;;;;;;;4953688;28;20365;-69
2022/04/01 00:57:47;;;;;;;10.45;3.58;;;;;;;;;;4964056;28;20433;-69
2022/04/01 01:00:13;;;;;;;14.40;4.32;;;;;;;;;;4950944;29;20038;-69
2022/04/01 01:02:40;;;;;;;17.20;4.57;;;;;;;;;;4965083;28;20031;-69
2022/04/01 01:05:06;;;;;;;10.63;4.30;;;;;;;;;;4965612;28;20613;-69
2022/04/01 01:07:32;;;;;;;14.13;4.43;;;;;;;;;;4953943;28;20043;-69
2022/04/01 01:10:00;;;;;;;16.77;4.18;;;;;;;;;;4951257;29;20034;-68
2022/04/01 01:12:27;;;;;;;11.80;4.18;;;;;;;;;;4950725;29;20148;-70
2022/04/01 01:14:54;;;;;;;11.48;3.70;;;;;;;;;;4957666;28;20587;-69
2022/04/01 01:17:20;;;;;;;11.40;4.10;;;;;;;;;;4958285;28;20025;-68
2022/04/01 01:19:46;;;;;;;10.25;4.00;;;;;;;;;;4958641;28;20046;-69
2022/04/01 01:22:13;;;;;;;10.68;3.95;;;;;;;;;;4953854;28;20552;-69
2022/04/01 01:24:41;;;;;;;15.25;4.57;;;;;;;;;;4955077;28;20034;-69
2022/04/01 01:27:08;;;;;;;13.32;4.28;;;;;;;;;;4970433;28;20062;-68
2022/04/01 01:29:37;;;;;;;11.90;4.22;;;;;;;;;;4972823;28;20027;-70
2022/04/01 01:32:04;;;;;;;20.02;5.07;;;;;;;;;;4965946;28;20027;-69
2022/04/01 01:34:34;;;;;;;11.27;4.28;;;;;;;;;;4955720;28;20484;-68
2022/04/01 01:37:01;;;;;;;15.88;4.50;;;;;;;;;;4970510;28;20027;-69
2022/04/01 01:39:27;;;;;;;12.50;4.18;;;;;;;;;;4973993;28;20027;-69
2022/04/01 01:41:54;;;;;;;15.52;4.05;;;;;;;;;;4970299;28;20084;-69
2022/04/01 01:44:22;;;;;;;10.52;3.85;;;;;;;;;;4968537;28;20109;-68
2022/04/01 01:46:49;;;;;;;14.07;4.90;;;;;;;;;;5039815;28;20046;-68
2022/04/01 01:49:20;;;;;;;9.73;3.97;;;;;;;;;;4965305;28;20023;-69
2022/04/01 01:54:42;;;;;;;11.23;4.13;;;;;;;;;;4958201;28;20089;-69
2022/04/01 01:57:09;;;;;;;10.43;4.28;;;;;;;;;;4958366;28;20027;-69
2022/04/01 01:59:36;;;;;;;11.88;4.25;;;;;;;;;;4956364;28;20092;-69
2022/04/01 02:02:05;;;;;;;13.57;4.05;;;;;;;;;;4964861;28;20115;-69
2022/04/01 02:04:31;;;;;;;12.93;4.05;;;;;;;;;;4953586;29;20114;-69
2022/04/01 02:06:57;;;;;;;14.43;4.20;;;;;;;;;;4954475;29;20196;-69
2022/04/01 02:09:23;;;;;;;12.70;3.90;;;;;;;;;;4967158;28;20030;-69
2022/04/01 02:11:50;;;;;;;14.45;4.20;;;;;;;;;;4958162;28;20027;-69
2022/04/01 02:14:16;;;;;;;12.95;4.53;;;;;;;;;;4959311;28;20503;-70
2022/04/01 02:16:45;;;;;;;13.85;4.50;;;;;;;;;;4955317;28;20404;-69
2022/04/01 02:19:11;;;;;;;15.35;4.35;;;;;;;;;;4959081;28;20027;-69
2022/04/01 02:21:39;;;;;;;17.23;4.78;;;;;;;;;;4968168;28;20035;-69
2022/04/01 02:24:10;;;;;;;10.57;4.68;;;;;;;;;;4953943;29;20114;-69
2022/04/01 02:26:37;;;;;;;16.92;5.18;;;;;;;;;;4956889;29;20034;-69
2022/04/01 02:29:05;;;;;;;14.63;4.38;;;;;;;;;;5021841;28;20157;-68
2022/04/01 02:31:32;;;;;;;19.60;4.70;;;;;;;;;;4971300;28;20106;-69
2022/04/01 02:33:59;;;;;;;17.25;4.43;;;;;;;;;;4955446;28;20038;-69
2022/04/01 02:36:25;;;;;;;13.85;4.47;;;;;;;;;;4955413;29;20082;-69
2022/04/01 02:38:53;;;;;;;13.35;4.47;;;;;;;;;;4954043;29;20023;-69
2022/04/01 02:41:19;;;;;;;15.52;4.63;;;;;;;;;;4965987;28;20023;-68
2022/04/01 02:43:45;;;;;;;11.88;4.00;;;;;;;;;;4961671;28;20077;-69
2022/04/01 02:46:11;;;;;;;11.88;4.15;;;;;;;;;;4956500;29;20054;-69
2022/04/01 02:48:37;;;;;;;10.15;4.07;;;;;;;;;;4953645;29;20429;-69
2022/04/01 02:51:03;;;;;;;13.30;4.50;;;;;;;;;;4957977;28;20023;-69
2022/04/01 02:53:29;;;;;;;12.95;4.25;;;;;;;;;;4970895;28;20102;-69
2022/04/01 02:55:55;;;;;;;11.15;3.83;;;;;;;;;;4965560;28;20080;-69
2022/04/01 02:58:21;;;;;;;14.07;4.32;;;;;;;;;;4972485;28;20110;-69
2022/04/01 03:00:48;;;;;;;12.48;4.40;;;;;;;;;;4953708;28;20043;-69
2022/04/01 03:03:14;;;;;;;13.07;4.35;;;;;;;;;;4958069;28;20031;-69
2022/04/01 03:05:44;;;;;;;12.63;4.35;;;;;;;;;;4953333;28;20027;-69
2022/04/01 03:08:10;;;;;;;14.52;4.65;;;;;;;;;;5055285;28;20039;-69
2022/04/01 03:10:37;;;;;;;12.23;3.80;;;;;;;;;;4953475;29;20027;-69
2022/04/01 03:13:04;;;;;;;15.65;4.38;;;;;;;;;;4962654;28;20039;-69
2022/04/01 03:15:30;;;;;;;15.95;4.63;;;;;;;;;;4962390;28;20058;-69
2022/04/01 03:17:58;;;;;;;14.52;4.13;;;;;;;;;;5021037;28;20480;-69
2022/04/01 03:20:25;;;;;;;19.15;4.28;;;;;;;;;;4953225;29;20034;-69
2022/04/01 03:22:51;;;;;;;13.65;3.88;;;;;;;;;;4953561;28;20031;-68
2022/04/01 03:25:18;;;;;;;10.55;3.70;;;;;;;;;;4970963;28;20027;-68
2022/04/01 03:27:45;;;;;;;11.35;4.40;;;;;;;;;;4954273;28;20073;-69
2022/04/01 03:30:11;;;;;;;15.15;4.63;;;;;;;;;;4953020;28;20028;-69
2022/04/01 03:32:38;;;;;;;11.82;3.90;;;;;;;;;;4954788;28;20035;-68
2022/04/01 03:35:05;;;;;;;14.73;3.70;;;;;;;;;;4968219;28;20100;-69
2022/04/01 03:37:32;;;;;;;11.73;3.97;;;;;;;;;;4963840;28;20068;-69
2022/04/01 03:39:58;;;;;;;15.05;4.38;;;;;;;;;;4953981;28;20039;-68
2022/04/01 03:42:30;;;;;;;10.57;3.63;;;;;;;;;;4952979;28;20472;-69
2022/04/01 03:44:56;;;;;;;13.15;3.50;;;;;;;;;;4960042;28;20035;-69
2022/04/01 03:47:25;;;;;;;12.98;3.55;;;;;;;;;;4962023;28;20039;-69
2022/04/01 03:49:53;;;;;;;10.45;3.65;;;;;;;;;;4954566;28;20126;-68
2022/04/01 03:52:21;;;;;;;11.57;4.25;;;;;;;;;;4954488;28;20093;-69
2022/04/01 03:54:48;;;;;;;11.48;3.95;;;;;;;;;;4954359;28;20045;-68
2022/04/01 03:57:18;;;;;;;12.85;3.63;;;;;;;;;;4952566;28;20019;-69
2022/04/01 03:59:45;;;;;;;10.20;3.40;;;;;;;;;;4959152;28;20092;-69
2022/04/01 04:02:12;;;;;;;13.13;3.97;;;;;;;;;;4967596;28;20114;-69
2022/04/01 04:04:39;;;;;;;9.35;3.85;;;;;;;;;;4970549;28;20038;-69
2022/04/01 04:07:09;;;;;;;9.10;3.38;;;;;;;;;;4960070;28;20038;-69
2022/04/01 04:09:38;;;;;;;11.73;3.70;;;;;;;;;;4953800;28;20031;-70
2022/04/01 04:12:05;;;;;;;12.45;3.80;;;;;;;;;;4968415;28;20027;-69
2022/04/01 04:14:33;;;;;;;9.70;4.20;;;;;;;;;;4975884;28;20027;-69
2022/04/01 04:17:06;;;;;;;13.45;4.20;;;;;;;;;;5035752;28;20384;-68
2022/04/01 04:19:44;;;;;;;15.70;8.30;;;;;;;;;;4959806;28;20038;-69
2022/04/01 04:22:16;;;;;;;13.75;5.03;;;;;;;;;;4952139;29;20036;-69
2022/04/01 04:24:54;;;;;;;12.00;3.63;;;;;;;;;;4951312;28;20035;-69
2022/04/01 04:27:24;;;;;;;13.43;4.00;;;;;;;;;;4957747;28;20039;-68
2022/04/01 04:29:51;;;;;;;9.98;4.15;;;;;;;;;;4952562;28;20114;-69
2022/04/01 04:32:24;;;;;;;16.83;4.60;;;;;;;;;;4952187;28;20063;-69
2022/04/01 04:34:51;;;;;;;13.32;4.63;;;;;;;;;;4962440;28;20032;-69
2022/04/01 04:37:20;;;;;;;15.15;4.35;;;;;;;;;;4952114;28;20028;-67
2022/04/01 04:39:49;;;;;;;17.55;4.95;;;;;;;;;;4936598;29;20058;-68
2022/04/01 04:42:16;;;;;;;10.68;4.05;;;;;;;;;;4951906;29;20191;-68
2022/04/01 04:44:44;;;;;;;14.65;4.50;;;;;;;;;;4952122;28;20031;-68
2022/04/01 04:47:11;;;;;;;12.25;4.07;;;;;;;;;;4952497;28;20046;-68
2022/04/01 04:49:41;;;;;;;10.90;3.70;;;;;;;;;;4963656;28;20038;-68
2022/04/01 04:52:08;;;;;;;11.68;3.88;;;;;;;;;;4951560;28;20034;-68
2022/04/01 04:54:38;;;;;;;11.23;4.25;;;;;;;;;;4958912;28;20427;-69
2022/04/01 04:57:06;;;;;;;12.10;4.07;;;;;;;;;;4968909;28;20038;-69
2022/04/01 04:59:34;;;;;;;11.90;3.95;;;;;;;;;;4964172;28;20038;-69
2022/04/01 05:02:20;;;;;;;12.48;4.47;;;;;;;;;;4959171;28;20492;-68
2022/04/01 05:05:01;;;;;;;16.60;4.05;;;;;;;;;;5027682;28;20037;-68
2022/04/01 05:07:27;;;;;;;9.90;4.38;;;;;;;;;;5042370;28;20055;-69
2022/04/01 05:10:09;;;;;;;12.90;4.32;;;;;;;;;;5030318;28;20061;-68
2022/04/01 05:13:02;;;;;;;11.27;3.90;;;;;;;;;;5027686;28;20025;-75
2022/04/01 05:15:31;;;;;;;9.20;3.97;;;;;;;;;;5007248;28;20491;-72
2022/04/01 05:18:06;;;;;;;11.75;3.67;;;;;;;;;;5029329;28;20041;-71
2022/04/01 05:20:35;;;;;;;12.35;3.40;;;;;;;;;;5038284;28;20433;-73
2022/04/01 05:23:11;;;;;;;11.00;3.38;;;;;;;;;;5030106;28;20518;-69
2022/04/01 05:25:45;;;;;;;13.27;3.92;;;;;;;;;;5027573;28;20076;-70
2022/04/01 05:28:16;;;;;;;17.85;4.38;;;;;;;;;;5030872;28;20099;-71
2022/04/01 05:30:43;;;;;;;11.75;5.43;;;;;;;;;;5027292;28;20029;-69
2022/04/01 05:33:22;;;;;;;13.50;5.50;;;;;;;;;;5028351;28;20056;-72
2022/04/01 05:35:51;;;;;;;9.18;4.25;;;;;;;;;;5025325;28;20116;-71
2022/04/01 05:38:22;;;;;;;12.10;4.53;;;;;;;;;;5031014;28;20043;-68
2022/04/01 05:40:49;;;;;;;13.10;4.43;;;;;;;;;;5022943;28;20181;-71
2022/04/01 05:43:15;;;;;;;8.70;3.75;;;;;;;;;;4942908;28;20031;-72
2022/04/01 05:45:42;;;;;;;11.00;3.50;;;;;;;;;;4962782;28;20123;-71
2022/04/01 05:48:11;;;;;;;12.38;3.95;;;;;;;;;;4959426;28;20035;-72
2022/04/01 05:50:38;;;;;;;11.68;3.80;;;;;;;;;;4963167;28;20027;-88
2022/04/01 05:53:05;;;;;;;15.35;4.82;;;;;;;;;;4954238;28;20035;-79
2022/04/01 05:55:32;;;;;;;12.50;3.63;;;;;;;;;;4958648;28;20031;-75
2022/04/01 05:57:58;;;;;;;12.40;3.35;;;;;;;;;;4974381;28;20084;-79
2022/04/01 06:00:24;;;;;;;11.05;4.18;;;;;;;;;;5047600;28;20031;-79
2022/04/01 06:02:54;;;;;;;10.38;3.58;;;;;;;;;;5051759;28;20034;-81
2022/04/01 06:05:26;;;;;;;8.98;3.20;;;;;;;;;;4962133;28;20043;-76
2022/04/01 06:08:11;;;;;;;10.17;3.60;;;;;;;;;;5021028;28;20162;-70
2022/04/01 06:10:44;;;;;;;11.30;3.97;;;;;;;;;;4954045;28;20306;-80
2022/04/01 06:13:22;;;;;;;13.00;4.80;;;;;;;;;;4963514;28;20033;-73
2022/04/01 06:15:58;;;;;;;12.85;4.03;;;;;;;;;;4959768;28;20559;-69
2022/04/01 06:18:36;;;;;;;10.95;4.35;;;;;;;;;;4958297;28;20028;-68
2022/04/01 06:21:03;;;;;;;13.32;4.63;;;;;;;;;;4963678;28;20431;-73
2022/04/01 06:23:48;;;;;;;10.52;4.10;;;;;;;;;;4955178;28;20037;-73
2022/04/01 06:26:14;;;;;;;11.93;4.30;;;;;;;;;;5015508;28;20031;-71
2022/04/01 06:28:49;;;;;;;10.57;4.57;;;;;;;;;;4966187;28;20055;-69
2022/04/01 06:31:18;;;;;;;14.90;4.60;;;;;;;;;;4957906;28;20027;-72
2022/04/01 06:33:59;;;;;;;8.95;3.80;;;;;;;;;;4962532;28;20026;-69
2022/04/01 06:36:29;;;;;;;12.95;4.82;;;;;;;;;;4956981;28;20507;-74
2022/04/01 06:39:05;;;;;;;14.57;4.50;;;;;;;;;;4955921;28;20491;-74
2022/04/01 06:41:32;;;;;;;12.40;3.85;;;;;;;;;;4958217;28;20477;-72
2022/04/01 06:43:58;;;;;;;10.82;3.97;;;;;;;;;;4955620;28;20039;-73
2022/04/01 06:46:24;;;;;;;13.73;3.65;;;;;;;;;;4959229;28;20463;-75
2022/04/01 06:48:50;;;;;;;6.68;3.13;;;;;;;;;;4962923;28;20415;-77
2022/04/01 06:51:16;;;;;;;9.98;3.63;;;;;;;;;;4957328;28;20023;-74
2022/04/01 06:53:43;;;;;;;11.55;3.35;;;;;;;;;;4955402;28;20481;-73
2022/04/01 06:56:11;;;;;;;11.15;3.50;;;;;;;;;;4967712;28;20061;-73
2022/04/01 06:58:38;;;;;;;12.80;3.78;;;;;;;;;;4967747;28;20025;-87
2022/04/01 07:01:04;;;;;;;8.30;3.38;;;;;;;;;;5057230;28;20027;-72
2022/04/01 07:03:30;;;;;;;10.30;3.45;;;;;;;;;;5020206;28;20023;-83
2022/04/01 07:05:58;;;;;;;12.40;3.70;;;;;;;;;;4967980;28;20031;-70
2022/04/01 07:08:24;;;;;;;10.35;3.30;;;;;;;;;;4957201;28;20030;-70
2022/04/01 07:10:50;;;;;;;14.38;4.22;;;;;;;;;;4961548;28;20023;-71
2022/04/01 07:13:16;;;;;;;10.90;3.75;;;;;;;;;;4967931;28;20065;-86
2022/04/01 07:15:54;;;;;;;10.10;4.32;;;;;;;;;;5034764;28;20051;-71
2022/04/01 07:18:22;;;;;;;9.98;3.65;;;;;;;;;;5028700;28;20130;-73
2022/04/01 07:20:48;;;;;;;10.35;4.38;;;;;;;;;;4960484;28;20971;-70
2022/04/01 07:23:17;;;;;;;15.88;4.40;;;;;;;;;;4960124;28;20032;-70
2022/04/01 07:25:43;;;;;;;10.18;4.50;;;;;;;;;;4952920;28;20026;-71
2022/04/01 07:28:09;;;;;;;8.38;3.80;;;;;;;;;;5027310;28;20047;-72
2022/04/01 07:30:36;;;;;;;9.75;3.97;;;;;;;;;;4959207;28;20400;-71
2022/04/01 07:33:03;;;;;;;9.57;4.10;;;;;;;;;;4960720;28;20026;-70
2022/04/01 07:35:34;;;;;;;13.38;4.60;;;;;;;;;;4964496;28;20027;-79
2022/04/01 07:38:00;;;;;;;16.55;5.43;;;;;;;;;;5026294;28;20037;-72
2022/04/01 07:40:26;;;;;;;67.07;10.07;;;;;;;;;;4961123;28;20038;-69
2022/04/01 07:42:53;;;;;;;16.70;4.35;;;;;;;;;;4954637;28;20073;-68
2022/04/01 07:45:19;;;;;;;12.43;4.75;;;;;;;;;;4963181;28;20392;-68
2022/04/01 07:47:46;;;;;;;12.80;3.55;;;;;;;;;;4955986;28;20527;-68
2022/04/01 07:50:14;;;;;;;14.40;4.38;;;;;;;;;;4960258;28;20038;-69
2022/04/01 07:52:40;;;;;;;23.63;5.50;;;;;;;;;;4950831;28;20152;-73
2022/04/01 07:55:07;;;;;;;35.38;5.03;;;;;;;;;;4961945;28;20072;-74
2022/04/01 07:57:33;;;;;;;28.00;4.95;;;;;;;;;;4963482;28;20035;-72
2022/04/01 07:59:59;;;;;;;27.35;4.80;;;;;;;;;;4955112;28;20051;-75
2022/04/01 08:02:25;;;;;;;17.70;5.07;;;;;;;;;;4982055;28;20468;-79
2022/04/01 08:04:51;;;;;;;49.45;6.20;;;;;;;;;;4960191;28;20076;-72
2022/04/01 08:07:18;;;;;;;15.70;4.18;;;;;;;;;;5051362;28;20046;-70
2022/04/01 08:09:44;;;;;;;12.30;4.10;;;;;;;;;;4952789;28;20032;-77
2022/04/01 08:12:10;;;;;;;29.88;4.60;;;;;;;;;;4954317;28;20103;-71
2022/04/01 08:14:37;;;;;;;20.50;4.57;;;;;;;;;;4957576;28;20457;-67
2022/04/01 08:17:04;;;;;;;24.05;4.85;;;;;;;;;;4960967;28;20038;-72
2022/04/01 08:19:31;;;;;;;10.52;3.50;;;;;;;;;;4958626;28;20441;-74
2022/04/01 08:21:58;;;;;;;11.90;4.47;;;;;;;;;;4956057;28;20062;-72
2022/04/01 08:24:24;;;;;;;12.02;3.75;;;;;;;;;;4951421;28;20119;-69
2022/04/01 08:27:00;;;;;;;12.60;3.38;;;;;;;;;;4969618;28;20035;-73
2022/04/01 08:29:34;;;;;;;10.82;3.38;;;;;;;;;;5037492;28;20431;-73
2022/04/01 08:32:00;;;;;;;10.70;3.35;;;;;;;;;;5034890;28;20568;-71
2022/04/01 08:34:26;;;;;;;12.70;3.40;;;;;;;;;;5029915;28;20027;-74
2022/04/01 08:37:00;;;;;;;18.23;3.88;;;;;;;;;;5034503;28;20052;-80
2022/04/01 08:39:26;;;;;;;25.63;6.22;;;;;;;;;;5032197;28;20025;-78
2022/04/01 08:41:52;;;;;;;12.45;5.50;;;;;;;;;;5040306;28;20091;-72
2022/04/01 08:44:18;;;;;;;16.80;7.43;;;;;;;;;;5032617;28;20043;-76
2022/04/01 08:46:44;;;;;;;20.48;12.38;;;;;;;;;;5034208;28;20446;-82
2022/04/01 08:49:11;;;;;;;18.73;10.93;;;;;;;;;;5047082;28;20033;-77
2022/04/01 08:51:37;;;;;;;15.13;8.15;;;;;;;;;;5035871;28;20029;-77
2022/04/01 08:54:04;;;;;;;24.20;13.65;;;;;;;;;;4997831;28;20143;-78
2022/04/01 08:56:30;;;;;;;19.67;11.38;;;;;;;;;;4960288;28;20060;-72
2022/04/01 08:58:56;;;;;;;45.63;24.27;;;;;;;;;;4968479;28;20521;-71
2022/04/01 09:01:23;;;;;;;18.85;9.98;;;;;;;;;;5031107;28;20160;-67
2022/04/01 09:03:49;;;;;;;7.57;5.07;;;;;;;;;;4962862;28;20090;-69
2022/04/01 09:06:15;;;;;;;7.53;4.70;;;;;;;;;;4953709;28;20507;-66
2022/04/01 09:08:42;;;;;;;5.65;3.75;;;;;;;;;;4965560;28;20435;-67
2022/04/01 09:11:08;;;;;;;7.72;3.90;;;;;;;;;;4959422;28;20027;-74
2022/04/01 09:13:43;;;;;;;8.93;3.63;;;;;;;;;;4954706;28;20123;-67
2022/04/01 09:16:10;;;;;;;8.68;3.75;;;;;;;;;;4956823;28;20060;-68
2022/04/01 09:18:37;;;;;;;4.85;3.40;;;;;;;;;;4970215;28;20023;-67
2022/04/01 09:21:04;;;;;;;7.35;3.70;;;;;;;;;;4952777;28;20027;-67
2022/04/01 09:23:31;;;;;;;5.88;3.65;;;;;;;;;;5021789;28;20031;-73
2022/04/01 09:25:57;;;;;;;9.25;4.45;;;;;;;;;;4953339;28;20530;-68
2022/04/01 09:28:29;;;;;;;7.35;3.80;;;;;;;;;;4964418;28;20022;-67
2022/04/01 09:31:14;;;;;;;9.65;5.45;;;;;;;;;;4970303;28;20027;-68
2022/04/01 09:33:40;;;;;;;6.10;3.97;;;;;;;;;;4979475;28;20027;-68
2022/04/01 09:36:06;;;;;;;7.65;5.57;;;;;;;;;;4953668;28;20043;-68
2022/04/01 09:38:35;;;;;;;7.65;4.43;;;;;;;;;;4961664;28;20023;-70
2022/04/01 09:41:02;;;;;;;8.93;4.30;;;;;;;;;;4954600;28;20484;-73
2022/04/01 09:43:28;;;;;;;5.63;3.80;;;;;;;;;;4957595;28;20031;-68
2022/04/01 09:45:55;;;;;;;7.18;4.10;;;;;;;;;;4957398;28;20393;-70
2022/04/01 09:48:21;;;;;;;6.15;4.00;;;;;;;;;;4946993;28;20030;-74
2022/04/01 09:50:59;;;;;;;7.00;3.90;;;;;;;;;;4961231;28;20035;-70
2022/04/01 09:53:25;;;;;;;12.57;4.20;;;;;;;;;;4964938;28;20132;-71
2022/04/01 09:55:52;;;;;;;7.55;4.60;;;;;;;;;;4953755;28;20043;-69
2022/04/01 09:58:19;;;;;;;7.63;4.43;;;;;;;;;;4961600;28;20054;-70
2022/04/01 10:00:46;;;;;;;9.45;5.80;;;;;;;;;;5023097;28;20448;-74
2022/04/01 10:03:13;;;;;;;7.57;5.10;;;;;;;;;;4958645;28;20150;-77
2022/04/01 10:05:39;;;;;;;11.30;5.30;;;;;;;;;;4950248;28;20496;-69
2022/04/01 10:08:07;;;;;;;10.18;6.13;;;;;;;;;;4958955;28;20476;-77
2022/04/01 10:10:33;;;;;;;11.75;5.28;;;;;;;;;;4955568;28;20102;-69
2022/04/01 10:13:06;;;;;;;11.70;7.80;;;;;;;;;;4963159;28;20027;-69
2022/04/01 10:15:33;;;;;;;9.40;6.28;;;;;;;;;;4951809;28;20058;-79
2022/04/01 10:18:00;;;;;;;15.65;6.90;;;;;;;;;;4954889;28;20125;-72
2022/04/01 10:20:31;;;;;;;15.15;5.45;;;;;;;;;;4957490;28;20031;-77
2022/04/01 10:22:57;;;;;;;8.60;5.50;;;;;;;;;;4963441;28;20050;-77
2022/04/01 10:25:52;;;;;;;10.65;4.88;;;;;;;;;;4963026;28;20031;-72
2022/04/01 10:28:19;;;;;;;9.73;5.30;;;;;;;;;;4981011;28;20100;-71
2022/04/01 10:30:58;;;;;;;8.65;4.82;;;;;;;;;;4972240;28;20035;-72
2022/04/01 10:33:26;;;;;;;11.63;5.20;;;;;;;;;;4972849;28;20082;-77
2022/04/01 10:35:54;;;;;;;8.40;5.03;;;;;;;;;;4977628;28;20116;-74
2022/04/01 10:38:21;;;;;;;28.38;14.20;;;;;;;;;;4963197;28;20054;-73
2022/04/01 10:40:50;;;;;;;8.57;4.90;;;;;;;;;;4992601;28;20421;-72
2022/04/01 10:43:18;;;;;;;6.70;5.22;;;;;;;;;;4988201;28;20030;-69
2022/04/01 10:45:58;;;;;;;9.70;5.88;;;;;;;;;;4977260;28;20043;-72
2022/04/01 10:53:58;;;;;;;6.53;4.22;;;;;;;;;;4973563;28;20396;-77
2022/04/01 10:56:25;;;;;;;7.68;4.22;;;;;;;;;;4954135;28;20469;-79
2022/04/01 10:59:06;;;;;;;8.30;3.80;;;;;;;;;;4986220;28;20042;-75
2022/04/01 11:01:39;;;;;;;6.00;3.20;;;;;;;;;;4982091;28;20031;-76
2022/04/01 11:04:05;;;;;;;5.65;3.00;;;;;;;;;;4992303;28;20029;-79
2022/04/01 11:06:31;;;;;;;3.60;2.60;;;;;;;;;;4989215;28;20477;-78
2022/04/01 11:08:57;;;;;;;8.30;3.22;;;;;;;;;;4958457;28;20031;-77
2022/04/01 11:11:23;;;;;;;5.18;2.85;;;;;;;;;;4956055;28;20055;-76
2022/04/01 11:14:06;;;;;;;4.60;2.75;;;;;;;;;;4961840;28;20027;-73
2022/04/01 11:17:01;;;;;;;5.03;2.60;;;;;;;;;;4960160;28;20134;-72
2022/04/01 11:19:27;;;;;;;4.30;2.40;;;;;;;;;;4956458;28;20505;-71
2022/04/01 11:21:54;;;;;;;3.22;2.33;;;;;;;;;;4953237;28;20039;-74
2022/04/01 11:24:34;;;;;;;10.68;4.50;;;;;;;;;;4956730;28;20034;-70
2022/04/01 11:27:07;;;;;;;10.57;4.40;;;;;;;;;;4958276;28;20027;-69
2022/04/01 11:29:34;;;;;;;6.75;2.20;;;;;;;;;;4954528;28;20031;-72
2022/04/01 11:32:09;;;;;;;2.92;1.80;;;;;;;;;;4958006;28;20042;-81
2022/04/01 11:34:55;;;;;;;3.72;2.20;;;;;;;;;;4971938;28;20090;-75
2022/04/01 11:37:21;;;;;;;6.88;2.08;;;;;;;;;;4963161;28;20053;-80
2022/04/01 11:39:48;;;;;;;6.80;4.38;;;;;;;;;;4961350;28;20023;-85
2022/04/01 11:42:14;;;;;;;5.93;2.40;;;;;;;;;;4970979;28;20034;-72
2022/04/01 11:44:54;;;;;;;4.53;3.03;;;;;;;;;;4964658;28;20022;-80
2022/04/01 11:47:27;;;;;;;3.95;2.70;;;;;;;;;;4938368;28;20698;-92
2022/04/01 11:50:13;;;;;;;5.82;2.85;;;;;;;;;;4944430;28;20037;-76
2022/04/01 11:52:43;;;;;;;10.00;5.00;;;;;;;;;;4957931;28;20118;-84
2022/04/01 11:55:20;;;;;;;7.68;3.53;;;;;;;;;;4977647;28;20085;-73
2022/04/01 11:57:46;;;;;;;4.93;2.00;;;;;;;;;;4952025;28;20031;-75
2022/04/01 12:00:14;;;;;;;3.13;2.00;;;;;;;;;;5030706;28;20072;-80
2022/04/01 12:02:40;;;;;;;6.28;2.97;;;;;;;;;;5021704;28;20416;-70
2022/04/01 12:05:07;;;;;;;4.90;2.00;;;;;;;;;;4958576;28;20027;-75
2022/04/01 12:10:21;;;;;;;4.45;2.47;;;;;;;;;;4970810;28;20557;-76
2022/04/01 12:12:56;;;;;;;2.95;2.20;;;;;;;;;;4962014;28;20034;-77
2022/04/01 12:15:42;;;;;;;10.18;4.88;;;;;;;;;;5039279;28;20576;-78
2022/04/01 12:18:10;;;;;;;21.42;8.95;;;;;;;;;;4954677;28;20047;-77
2022/04/01 12:20:41;;;;;;;11.20;4.72;;;;;;;;;;5022390;28;20442;-75
2022/04/01 12:23:07;;;;;;;4.55;2.58;;;;;;;;;;4960877;28;20042;-76
2022/04/01 12:25:35;;;;;;;3.83;2.40;;;;;;;;;;5059833;28;20035;-80
2022/04/01 12:28:01;;;;;;;5.10;3.10;;;;;;;;;;5017280;28;20062;-76
2022/04/01 12:30:32;;;;;;;9.00;2.88;;;;;;;;;;4954486;28;20031;-79
2022/04/01 12:33:00;;;;;;;4.45;2.65;;;;;;;;;;4956433;28;20464;-80
2022/04/01 12:35:26;;;;;;;8.32;3.10;;;;;;;;;;5034325;28;20052;-87
2022/04/01 12:38:09;;;;;;;5.80;3.83;;;;;;;;;;5010684;28;20117;-87
2022/04/01 12:40:35;;;;;;;;;;;;;;;;;;5031020;28;20024;-77
2022/04/01 12:43:01;;;;;;;5.22;2.83;;;;;;;;;;5054008;28;20330;-82
2022/04/01 12:45:28;;;;;;;8.30;4.25;;;;;;;;;;4960020;28;20028;-89
2022/04/01 12:47:54;;;;;;;19.42;13.65;;;;;;;;;;4954833;28;20077;-77
2022/04/01 12:51:03;;;;;;;8.68;2.75;;;;;;;;;;4956580;28;20027;-81
2022/04/01 12:53:25;;;;;;;3.65;2.40;;;;;;;;;;4958636;28;20042;-70
2022/04/01 12:55:53;;;;;;;5.35;3.30;;;;;;;;;;4952880;28;20023;-70
2022/04/01 12:58:22;;;;;;;2.10;1.90;;;;;;;;;;4954917;28;20027;-74
2022/04/01 13:01:00;;;;;;;3.30;2.40;;;;;;;;;;4955896;28;20477;-75
2022/04/01 13:03:28;;;;;;;4.10;2.22;;;;;;;;;;4947507;28;20067;-78
2022/04/01 13:06:15;;;;;;;5.13;2.60;;;;;;;;;;5016156;28;20046;-84
2022/04/01 13:08:41;;;;;;;4.35;2.22;;;;;;;;;;4962705;28;20031;-75
2022/04/01 13:11:14;;;;;;;3.70;2.30;;;;;;;;;;4959435;28;20066;-75
2022/04/01 13:13:41;;;;;;;3.80;2.30;;;;;;;;;;4961969;28;20084;-76
2022/04/01 13:16:07;;;;;;;5.68;2.45;;;;;;;;;;5024435;28;20109;-74
2022/04/01 13:18:33;;;;;;;5.18;2.97;;;;;;;;;;4952865;28;20124;-75
2022/04/01 13:20:59;;;;;;;5.82;2.30;;;;;;;;;;4953178;28;20797;-75
2022/04/01 13:23:28;;;;;;;4.38;2.58;;;;;;;;;;5045704;28;20568;-78
2022/04/01 13:25:54;;;;;;;5.93;2.80;;;;;;;;;;4958276;28;20444;-74
2022/04/01 13:28:20;;;;;;;5.68;2.67;;;;;;;;;;5054820;28;20411;-74
2022/04/01 13:30:46;;;;;;;3.42;2.33;;;;;;;;;;4966641;28;20019;-88
2022/04/01 13:33:15;;;;;;;64.72;33.15;;;;;;;;;;5028269;28;20039;-87
2022/04/01 13:35:41;;;;;;;16.70;7.57;;;;;;;;;;5021919;28;20023;-85
2022/04/01 13:38:07;;;;;;;9.25;3.22;;;;;;;;;;5053358;28;20097;-80
2022/04/01 13:40:33;;;;;;;18.55;8.63;;;;;;;;;;4961893;28;20093;-80
2022/04/01 13:43:00;;;;;;;5.03;2.63;;;;;;;;;;4961948;28;20108;-84
2022/04/01 13:45:30;;;;;;;7.00;3.17;;;;;;;;;;4986081;28;20122;-77
2022/04/01 13:47:58;;;;;;;6.47;2.85;;;;;;;;;;4951723;28;20042;-79
2022/04/01 13:50:24;;;;;;;8.55;2.70;;;;;;;;;;4963563;28;20030;-75
2022/04/01 13:52:50;;;;;;;13.90;2.83;;;;;;;;;;5024106;28;20031;-79
2022/04/01 13:55:16;;;;;;;2.90;2.25;;;;;;;;;;4959266;28;20488;-77
2022/04/01 13:57:43;;;;;;;3.08;2.20;;;;;;;;;;4955283;28;20432;-79
2022/04/01 14:00:09;;;;;;;6.93;2.70;;;;;;;;;;4953746;28;20030;-81
2022/04/01 14:02:36;;;;;;;4.22;2.55;;;;;;;;;;4997284;28;20430;-79
2022/04/01 14:05:02;;;;;;;5.40;2.72;;;;;;;;;;4960523;28;20026;-75
2022/04/01 14:07:28;;;;;;;8.57;3.03;;;;;;;;;;4953918;28;20034;-81
2022/04/01 14:09:54;;;;;;;6.03;2.35;;;;;;;;;;4957272;28;20034;-73
2022/04/01 14:12:20;;;;;;;6.47;4.53;;;;;;;;;;4963139;28;20034;-79
2022/04/01 14:14:46;;;;;;;6.05;3.25;;;;;;;;;;4985383;28;20039;-80
2022/04/01 14:17:12;;;;;;;6.43;3.13;;;;;;;;;;4971855;28;20049;-78
2022/04/01 14:19:38;;;;;;;8.25;5.35;;;;;;;;;;4952373;28;20370;-82
2022/04/01 14:22:04;;;;;;;8.82;3.88;;;;;;;;;;4964667;28;20023;-73
2022/04/01 14:24:30;;;;;;;6.43;3.90;;;;;;;;;;4963745;28;20023;-79
2022/04/01 14:26:57;;;;;;;8.32;2.88;;;;;;;;;;4956887;28;20034;-75
2022/04/01 14:32:25;;;;;;;4.82;2.50;;;;;;;;;;4992919;28;20049;-70
2022/04/01 14:34:51;;;;;;;3.50;2.30;;;;;;;;;;4992194;28;20109;-75
2022/04/01 14:37:17;;;;;;;3.78;2.45;;;;;;;;;;4992585;28;20046;-70
2022/04/01 14:39:43;;;;;;;5.53;2.20;;;;;;;;;;4990979;28;20163;-73
2022/04/01 14:42:11;;;;;;;4.40;3.00;;;;;;;;;;4997329;28;20590;-79
2022/04/01 14:44:37;;;;;;;4.28;2.70;;;;;;;;;;4994170;28;20035;-76
2022/04/01 14:47:03;;;;;;;6.82;2.53;;;;;;;;;;4992813;28;20053;-80
2022/04/01 14:49:29;;;;;;;2.75;2.33;;;;;;;;;;4992233;28;20030;-68
2022/04/01 14:51:56;;;;;;;6.22;2.70;;;;;;;;;;4993765;28;20027;-76
2022/04/01 14:54:22;;;;;;;4.07;2.70;;;;;;;;;;4989194;28;20030;-74
2022/04/01 14:56:48;;;;;;;5.15;3.03;;;;;;;;;;5003772;28;20066;-78
2022/04/01 14:59:14;;;;;;;3.65;2.20;;;;;;;;;;5001187;28;20068;-80